Time;durP1;ratioP1;P1;durP2;ratioP2;P2;SDS_P1;SDS_P2;PMS_P1;PMS_P2;Temp;Humidity;BMP_temperature;BMP_pressure;BME280_temperature;BME280_humidity;BME280_pressure;Samples;Min_cycle;Max_cycle;Signal;HPM_P1;HPM_P2
2022/04/05 00:02:43;;;;;;;0.00;0.00;;;;;;;12.76;64.66;100372.25;10543135;28;20056;-87
2022/04/05 00:07:45;;;;;;;0.00;0.00;;;;;;;13.63;62.01;100359.88;10567312;28;20127;-87
2022/04/05 00:12:47;;;;;;;0.00;0.00;;;;;;;13.26;63.06;100370.88;10564410;28;20048;-87
2022/04/05 00:17:50;;;;;;;0.00;0.00;;;;;;;12.60;64.78;100386.75;10568446;28;20063;-87
2022/04/05 00:22:51;;;;;;;0.00;0.00;;;;;;;11.48;68.86;100387.16;10583073;28;20544;-88
2022/04/05 00:27:53;;;;;;;0.00;0.00;;;;;;;12.29;66.91;100378.69;10545542;28;20593;-87
2022/04/05 00:32:54;;;;;;;0.00;0.00;;;;;;;10.76;70.54;100397.22;10561474;28;20055;-87
2022/04/05 00:37:56;;;;;;;0.80;0.30;;;;;;;11.16;68.92;100402.16;10561357;28;20112;-87
2022/04/05 00:43:00;;;;;;;0.10;0.10;;;;;;;10.81;70.33;100403.31;10560259;28;20423;-87
2022/04/05 00:48:04;;;;;;;6.13;0.15;;;;;;;10.99;69.50;100404.47;10543151;28;20490;-87
2022/04/05 00:53:08;;;;;;;0.00;0.00;;;;;;;10.99;70.17;100401.91;10559694;28;20043;-88
2022/04/05 00:58:11;;;;;;;0.00;0.00;;;;;;;11.69;66.94;100399.47;10558955;28;20051;-87
2022/04/05 01:03:14;;;;;;;0.00;0.00;;;;;;;11.55;68.09;100406.16;10559340;28;20058;-88
2022/04/05 01:08:18;;;;;;;0.00;0.00;;;;;;;11.67;67.60;100405.47;10560189;28;20067;-88
2022/04/05 01:13:20;;;;;;;0.00;0.00;;;;;;;11.31;68.16;100417.88;10542143;28;20112;-87
2022/04/05 01:18:22;;;;;;;1.00;0.38;;;;;;;11.38;67.97;100419.69;10533786;28;20419;-87
2022/04/05 01:23:26;;;;;;;0.00;0.00;;;;;;;11.34;68.43;100430.81;10558260;28;20047;-88
2022/04/05 01:28:28;;;;;;;0.00;0.00;;;;;;;11.18;68.91;100441.72;10576451;28;20035;-87
2022/04/05 01:33:29;;;;;;;0.00;0.00;;;;;;;11.48;67.10;100420.69;10563070;28;20160;-88
2022/04/05 01:38:34;;;;;;;0.00;0.00;;;;;;;11.90;66.34;100413.50;10567487;28;20487;-88
2022/04/05 01:43:36;;;;;;;0.00;0.00;;;;;;;11.97;65.04;100405.03;10550346;28;20444;-88
2022/04/05 01:48:39;;;;;;;0.00;0.00;;;;;;;12.05;64.93;100403.41;10549941;28;20042;-88
2022/04/05 01:53:41;;;;;;;0.00;0.00;;;;;;;12.23;63.93;100401.88;10566411;28;20498;-88
2022/04/05 01:58:42;;;;;;;0.00;0.00;;;;;;;12.34;63.65;100392.53;10565618;28;20085;-88
2022/04/05 02:03:44;;;;;;;0.10;0.10;;;;;;;12.03;64.23;100401.66;10548146;28;20138;-85
2022/04/05 02:08:45;;;;;;;0.00;0.00;;;;;;;11.40;66.90;100418.00;10548209;28;20043;-86
2022/04/05 02:13:47;;;;;;;0.00;0.00;;;;;;;11.41;67.23;100419.75;10559111;28;20044;-85
2022/04/05 02:18:50;;;;;;;0.00;0.00;;;;;;;11.68;66.36;100408.06;10568660;28;20062;-82
2022/04/05 02:23:52;;;;;;;0.00;0.00;;;;;;;11.12;67.95;100421.88;10569763;28;20044;-82
2022/04/05 02:29:01;;;;;;;0.00;0.00;;;;;;;11.56;66.90;100418.22;10527448;28;20055;-82
2022/04/05 02:34:08;;;;;;;0.85;0.30;;;;;;;10.98;68.35;100413.94;10543339;28;20525;-81
2022/04/05 02:39:15;;;;;;;0.00;0.00;;;;;;;12.27;64.03;100424.31;10568618;28;20440;-81
2022/04/05 02:44:19;;;;;;;0.00;0.00;;;;;;;11.57;66.48;100427.72;10552146;28;20048;-82
2022/04/05 02:49:23;;;;;;;0.00;0.00;;;;;;;11.73;65.89;100416.72;10569339;28;20047;-80
2022/04/05 02:54:26;;;;;;;0.00;0.00;;;;;;;12.76;62.98;100425.66;10569205;28;20525;-80
2022/04/05 02:59:32;;;;;;;0.00;0.00;;;;;;;12.04;64.55;100426.63;10552755;28;20067;-80
2022/04/05 03:04:36;;;;;;;0.00;0.00;;;;;;;12.06;64.82;100430.09;10568616;28;20047;-80
2022/04/05 03:09:40;;;;;;;0.00;0.00;;;;;;;11.88;65.19;100421.25;10568271;28;20400;-81
2022/04/05 03:14:45;;;;;;;0.00;0.00;;;;;;;11.60;66.37;100425.16;10551194;28;20044;-81
2022/04/05 03:19:49;;;;;;;0.00;0.00;;;;;;;11.70;66.24;100437.34;10551057;28;20039;-82
2022/04/05 03:24:51;;;;;;;0.00;0.00;;;;;;;12.11;65.02;100438.75;10567613;28;20503;-81
2022/04/05 03:29:53;;;;;;;0.00;0.00;;;;;;;12.32;63.57;100435.53;10550864;28;20553;-82
2022/04/05 03:34:55;;;;;;;0.00;0.00;;;;;;;11.58;66.16;100443.19;10567598;28;20074;-81
2022/04/05 03:39:58;;;;;;;0.00;0.00;;;;;;;11.69;66.16;100439.91;10566553;28;20039;-82
2022/04/05 03:45:00;;;;;;;0.00;0.00;;;;;;;11.81;65.31;100421.13;10566915;28;20043;-81
2022/04/05 03:50:03;;;;;;;0.00;0.00;;;;;;;12.48;62.96;100422.78;10566797;28;20046;-82
2022/04/05 03:55:08;;;;;;;0.00;0.00;;;;;;;11.37;67.11;100430.00;10564583;28;20052;-82
2022/04/05 04:00:16;;;;;;;0.00;0.00;;;;;;;11.58;66.50;100432.00;10565484;28;20166;-82
2022/04/05 04:05:27;;;;;;;0.05;0.05;;;;;;;11.51;67.02;100425.00;10565290;28;20047;-82
2022/04/05 04:10:30;;;;;;;0.00;0.00;;;;;;;11.38;66.50;100430.00;10565659;28;20492;-83
2022/04/05 04:15:34;;;;;;;0.00;0.00;;;;;;;12.47;63.47;100427.09;10565662;28;20052;-82
2022/04/05 04:20:39;;;;;;;0.25;0.25;;;;;;;11.84;65.24;100423.75;10548699;28;20415;-82
2022/04/05 04:25:42;;;;;;;0.00;0.00;;;;;;;11.89;65.10;100427.25;10565353;28;20043;-82
2022/04/05 04:30:44;;;;;;;0.00;0.00;;;;;;;12.05;64.69;100428.38;10564967;28;20035;-82
2022/04/05 04:35:46;;;;;;;0.00;0.00;;;;;;;12.54;63.21;100433.22;10565349;28;20036;-82
2022/04/05 04:40:50;;;;;;;0.00;0.00;;;;;;;12.29;63.54;100443.28;10547970;28;20043;-82
2022/04/05 04:45:51;;;;;;;0.00;0.00;;;;;;;12.09;64.23;100444.75;10548434;28;20044;-82
2022/04/05 04:50:53;;;;;;;0.00;0.00;;;;;;;12.01;64.58;100442.06;10564660;28;20138;-83
2022/04/05 04:55:55;;;;;;;0.00;0.00;;;;;;;13.10;60.72;100438.88;10564410;28;20460;-82
2022/04/05 05:01:10;;;;;;;0.00;0.00;;;;;;;12.43;63.03;100440.84;10550250;28;20044;-82
2022/04/05 05:06:12;;;;;;;0.00;0.00;;;;;;;12.62;62.54;100439.31;10563841;28;20040;-82
2022/04/05 05:11:14;;;;;;;0.00;0.00;;;;;;;12.80;61.73;100436.06;10564092;28;20052;-82
2022/04/05 05:16:16;;;;;;;0.00;0.00;;;;;;;12.45;62.57;100422.78;10547225;28;20453;-82
2022/04/05 05:21:19;;;;;;;0.00;0.00;;;;;;;12.11;64.08;100422.38;10564289;28;20050;-82
2022/04/05 05:26:21;;;;;;;0.00;0.00;;;;;;;12.54;63.29;100433.22;10546894;28;20464;-82
2022/04/05 05:31:22;;;;;;;0.00;0.00;;;;;;;12.49;63.26;100432.28;10547190;28;20044;-82
2022/04/05 05:36:24;;;;;;;0.00;0.00;;;;;;;12.78;61.29;100442.91;10563589;28;20460;-82
2022/04/05 05:41:26;;;;;;;0.00;0.00;;;;;;;12.97;61.11;100433.63;10546281;28;20095;-82
2022/04/05 05:46:28;;;;;;;0.00;0.00;;;;;;;13.90;58.27;100423.88;10546640;28;20096;-83
2022/04/05 05:51:29;;;;;;;0.00;0.00;;;;;;;14.58;56.51;100426.69;10546769;28;20122;-82
2022/04/05 05:56:31;;;;;;;0.00;0.00;;;;;;;13.05;60.42;100440.56;10563082;28;20491;-82
2022/04/05 06:01:33;;;;;;;0.00;0.00;;;;;;;12.60;62.22;100438.44;10546278;28;20048;-82
2022/04/05 06:06:34;;;;;;;0.00;0.00;;;;;;;13.02;61.41;100447.44;10562940;28;20063;-82
2022/04/05 06:11:36;;;;;;;0.00;0.00;;;;;;;12.73;63.00;100448.88;10546005;28;20440;-81
2022/04/05 06:16:37;;;;;;;0.00;0.00;;;;;;;12.71;63.82;100441.13;10562267;28;20047;-81
2022/04/05 06:21:39;;;;;;;0.03;0.03;;;;;;;12.56;61.96;100436.66;10568946;28;20058;-80
2022/04/05 06:26:41;;;;;;;0.32;0.22;;;;;;;12.29;64.88;100443.28;10553744;28;20048;-80
2022/04/05 06:31:42;;;;;;;5.50;1.15;;;;;;;13.46;61.44;100442.63;10570634;28;20070;-80
2022/04/05 06:36:44;;;;;;;0.00;0.00;;;;;;;12.92;63.69;100440.44;10553819;28;20051;-80
2022/04/05 06:41:46;;;;;;;0.00;0.00;;;;;;;13.52;60.70;100439.22;10554067;28;20040;-81
2022/04/05 06:46:48;;;;;;;0.00;0.00;;;;;;;13.66;61.70;100429.81;10553041;28;20044;-81
2022/04/05 06:51:49;;;;;;;0.00;0.00;;;;;;;14.45;57.32;100437.88;10570087;28;20128;-81
2022/04/05 06:56:51;;;;;;;1.25;1.08;;;;;;;13.51;60.71;100446.13;10569496;28;20075;-81
2022/04/05 07:01:52;;;;;;;0.00;0.00;;;;;;;13.27;61.59;100445.06;10587345;28;20105;-80
2022/04/05 07:06:56;;;;;;;0.13;0.13;;;;;;;14.01;58.88;100436.03;10569040;28;20502;-81
2022/04/05 07:11:58;;;;;;;0.00;0.00;;;;;;;14.89;56.64;100439.72;10551203;28;20101;-80
2022/04/05 07:23:36;;;;;;;0.00;0.00;;;;;;;14.96;56.28;100429.34;10542457;28;20028;-81
2022/04/05 07:28:37;;;;;;;0.00;0.00;;;;;;;14.64;58.19;100417.16;10521884;28;20043;-81
2022/04/05 07:33:39;;;;;;;0.00;0.00;;;;;;;15.44;55.61;100417.19;10567406;28;20589;-81
2022/04/05 07:38:40;;;;;;;0.00;0.00;;;;;;;15.32;56.23;100415.50;10567422;28;20036;-81
2022/04/05 07:43:42;;;;;;;0.00;0.00;;;;;;;15.27;56.40;100413.75;10567234;28;20080;-82
2022/04/05 07:48:46;;;;;;;0.05;0.05;;;;;;;14.97;57.28;100420.69;10550077;28;20380;-82
2022/04/05 07:53:48;;;;;;;0.00;0.00;;;;;;;10.11;76.04;100430.34;10549790;28;20494;-82
2022/04/05 07:58:50;;;;;;;0.00;0.00;;;;;;;10.47;76.66;100437.06;10549526;28;20096;-81
2022/04/05 08:03:52;;;;;;;0.47;0.35;;;;;;;10.83;75.96;100439.44;10566142;28;20486;-81
2022/04/05 08:08:56;;;;;;;0.20;0.10;;;;;;;10.86;76.94;100436.91;10565892;28;20505;-82
2022/04/05 08:14:00;;;;;;;0.00;0.00;;;;;;;11.34;76.55;100435.97;10547536;28;20097;-81
2022/04/05 08:19:05;;;;;;;0.00;0.00;;;;;;;11.47;76.99;100428.41;10563663;28;20071;-84
2022/04/05 08:24:07;;;;;;;0.00;0.00;;;;;;;11.77;76.62;100427.97;10521586;28;20052;-82
2022/04/05 08:29:08;;;;;;;0.52;0.38;;;;;;;11.96;75.14;100423.91;10547600;28;20058;-84
2022/04/05 08:34:10;;;;;;;1.77;1.63;;;;;;;12.06;75.41;100430.97;10548400;28;20119;-83
2022/04/05 08:39:12;;;;;;;0.88;0.88;;;;;;;12.00;75.24;100432.59;10546487;28;20063;-82
2022/04/05 08:44:18;;;;;;;0.30;0.30;;;;;;;12.18;74.49;100439.69;10545325;28;20047;-84
2022/04/05 08:49:21;;;;;;;0.28;0.05;;;;;;;12.62;74.36;100441.88;10546443;28;20046;-84
2022/04/05 08:54:23;;;;;;;1.27;0.45;;;;;;;12.44;74.35;100442.56;10559513;28;20055;-83
2022/04/05 08:59:31;;;;;;;0.20;0.17;;;;;;;12.78;74.16;100447.22;10557650;28;20513;-84
2022/04/05 09:04:33;;;;;;;1.17;0.73;;;;;;;12.76;74.70;100451.53;10558667;28;20047;-85
2022/04/05 09:09:36;;;;;;;0.30;0.25;;;;;;;13.04;74.77;100444.84;10557670;28;20039;-84
2022/04/05 09:14:41;;;;;;;0.00;0.00;;;;;;;13.08;73.83;100446.63;10539916;28;20146;-86
2022/04/05 09:19:48;;;;;;;0.65;0.22;;;;;;;12.93;73.78;100452.53;10540366;28;20122;-89
2022/04/05 09:24:50;;;;;;;0.43;0.30;;;;;;;13.14;72.52;100449.25;10527774;28;20134;-86
2022/04/05 09:29:52;;;;;;;0.10;0.10;;;;;;;13.35;72.93;100446.84;10558298;28;20043;-86
2022/04/05 09:34:54;;;;;;;0.00;0.00;;;;;;;13.13;73.07;100457.03;10557096;28;20093;-87
2022/04/05 09:40:32;;;;;;;0.90;0.50;;;;;;;12.87;73.62;100457.66;10541020;28;20044;-85
2022/04/05 09:45:58;;;;;;;0.20;0.17;;;;;;;12.86;73.63;100466.25;10561944;28;20032;-85
2022/04/05 09:51:16;;;;;;;0.50;0.22;;;;;;;12.89;73.75;100465.41;10556694;28;20054;-86
2022/04/05 09:56:18;;;;;;;0.63;0.35;;;;;;;12.96;73.87;100468.06;10564159;28;20506;-87
2022/04/05 10:01:25;;;;;;;1.85;1.58;;;;;;;13.40;73.10;100465.88;10564663;28;20059;-86
2022/04/05 10:06:30;;;;;;;0.85;0.75;;;;;;;13.13;73.21;100465.63;10564329;28;20060;-84
2022/04/05 10:11:35;;;;;;;0.80;0.43;;;;;;;12.90;73.19;100470.63;10543680;28;20039;-85
2022/04/05 10:16:38;;;;;;;0.00;0.00;;;;;;;13.29;72.04;100461.44;10546854;28;20128;-85
2022/04/05 10:21:41;;;;;;;0.20;0.20;;;;;;;13.13;72.75;100464.78;10547102;28;20047;-85
2022/04/05 10:26:47;;;;;;;0.57;0.30;;;;;;;13.47;71.40;100457.28;10564203;28;20052;-84
2022/04/05 10:32:01;;;;;;;0.00;0.00;;;;;;;13.99;71.17;100458.44;10563095;28;20461;-85
2022/04/05 10:37:16;;;;;;;0.00;0.00;;;;;;;13.58;71.18;100468.59;10563536;28;20048;-88
2022/04/05 10:42:21;;;;;;;0.00;0.00;;;;;;;14.71;71.15;100456.13;10594849;27;20413;-90
2022/04/05 10:47:23;;;;;;;0.00;0.00;;;;;;;14.70;69.52;100458.72;10546959;28;20460;-88
2022/04/05 10:53:11;;;;;;;0.00;0.00;;;;;;;14.34;70.19;100458.59;10548831;28;20047;-85
2022/04/05 10:58:12;;;;;;;1.25;0.38;;;;;;;14.47;69.87;100456.03;10581504;28;20071;-87
2022/04/05 11:03:14;;;;;;;0.00;0.00;;;;;;;14.79;68.81;100443.16;10545889;28;20089;-89
2022/04/05 11:08:17;;;;;;;0.43;0.20;;;;;;;14.63;68.63;100451.75;10545743;28;20055;-89
2022/04/05 11:13:38;;;;;;;1.00;0.45;;;;;;;14.13;69.05;100451.59;10562764;28;20071;-88
2022/04/05 11:18:44;;;;;;;1.75;0.65;;;;;;;13.81;70.41;100452.34;10562160;28;20544;-88
2022/04/05 11:23:51;;;;;;;0.13;0.10;;;;;;;13.69;71.64;100465.19;10562632;28;20257;-87
2022/04/05 11:28:54;;;;;;;0.25;0.25;;;;;;;13.95;71.12;100455.88;10562266;28;20089;-87
2022/04/05 11:33:55;;;;;;;0.10;0.10;;;;;;;14.27;69.61;100455.09;10545489;28;20498;-89
2022/04/05 11:38:58;;;;;;;0.32;0.20;;;;;;;14.86;69.04;100450.06;10562746;28;20052;-87
2022/04/05 11:44:03;;;;;;;0.55;0.30;;;;;;;15.04;68.70;100457.00;10562538;28;20063;-89
2022/04/05 11:49:07;;;;;;;0.10;0.10;;;;;;;14.53;68.35;100461.22;10544849;28;20043;-90
2022/04/05 11:54:16;;;;;;;0.63;0.50;;;;;;;14.38;68.31;100462.06;10562148;28;20086;-90
2022/04/05 11:59:25;;;;;;;0.40;0.40;;;;;;;14.36;69.23;100463.78;10581142;28;20482;-90
2022/04/05 12:04:33;;;;;;;0.60;0.40;;;;;;;14.69;67.80;100468.22;10545197;28;20113;-89
2022/04/05 12:09:36;;;;;;;0.00;0.00;;;;;;;14.56;67.99;100467.28;10544993;28;20089;-90
2022/04/05 12:14:38;;;;;;;1.23;0.77;;;;;;;14.28;68.04;100469.78;10559289;28;20495;-85
2022/04/05 12:19:41;;;;;;;1.05;0.57;;;;;;;14.47;66.68;100467.28;10546680;28;20092;-83
2022/04/05 12:24:50;;;;;;;0.20;0.10;;;;;;;15.01;66.44;100461.31;10552494;28;20040;-81
2022/04/05 12:29:57;;;;;;;0.00;0.00;;;;;;;15.45;65.34;100450.06;10542433;28;20135;-81
2022/04/05 12:35:01;;;;;;;0.68;0.65;;;;;;;14.95;66.52;100461.31;10556670;28;20479;-81
2022/04/05 12:40:03;;;;;;;3.55;1.67;;;;;;;14.55;67.26;100460.41;10563081;28;20477;-81
2022/04/05 12:45:07;;;;;;;0.22;0.17;;;;;;;14.73;67.16;100461.31;10581822;28;20492;-81
2022/04/05 12:50:17;;;;;;;1.13;0.65;;;;;;;14.25;67.69;100467.22;10563288;28;20114;-81
2022/04/05 12:55:34;;;;;;;0.55;0.35;;;;;;;14.33;67.62;100461.19;10554603;28;20563;-81
2022/04/05 13:00:46;;;;;;;1.42;1.23;;;;;;;14.48;68.08;100458.66;10562948;28;20039;-83
2022/04/05 13:11:29;;;;;;;0.00;0.00;;;;;;;15.43;66.71;100446.63;10557622;28;20495;-81
2022/04/05 13:17:00;;;;;;;4.75;1.92;;;;;;;14.93;67.16;100450.09;10556390;28;20047;-80
2022/04/05 13:22:13;;;;;;;1.02;0.50;;;;;;;14.84;67.51;100451.81;10562637;28;20483;-81
2022/04/05 13:27:15;;;;;;;0.20;0.20;;;;;;;14.78;68.47;100446.59;10579328;28;20067;-83
2022/04/05 13:33:09;;;;;;;0.20;0.10;;;;;;;15.25;68.08;100446.63;10562106;28;20108;-81
2022/04/05 13:38:11;;;;;;;0.00;0.00;;;;;;;15.48;66.68;100431.91;10559537;28;20054;-84
2022/04/05 13:43:19;;;;;;;0.10;0.10;;;;;;;15.26;66.79;100435.38;10562178;28;20053;-82
2022/04/05 13:48:24;;;;;;;0.00;0.00;;;;;;;15.03;66.38;100431.06;10544438;28;20043;-81
2022/04/05 13:53:30;;;;;;;0.17;0.17;;;;;;;15.26;64.27;100433.66;10559083;28;20456;-81
2022/04/05 13:58:32;;;;;;;2.50;1.70;;;;;;;14.63;66.69;100431.88;10557330;28;20529;-84
2022/04/05 14:03:36;;;;;;;1.25;1.15;;;;;;;14.63;68.35;100431.03;10541571;28;20398;-84
2022/04/05 14:08:38;;;;;;;0.00;0.00;;;;;;;14.47;69.49;100415.44;10556969;28;20048;-89
2022/04/05 14:13:41;;;;;;;0.20;0.20;;;;;;;14.16;70.13;100430.91;10538421;28;20047;-86
2022/04/05 14:18:42;;;;;;;1.55;0.65;;;;;;;14.28;69.93;100425.75;10541497;28;20534;-84
2022/04/05 14:24:05;;;;;;;0.00;0.00;;;;;;;14.64;69.12;100415.47;10542875;28;20040;-86
2022/04/05 14:29:07;;;;;;;0.20;0.20;;;;;;;14.41;69.49;100418.00;10560550;28;20406;-84
2022/04/05 14:34:09;;;;;;;0.57;0.32;;;;;;;14.11;70.16;100415.34;10544713;28;20078;-84
2022/04/05 14:39:11;;;;;;;0.47;0.28;;;;;;;14.36;70.45;100422.31;10547365;28;20047;-86
2022/04/05 14:44:13;;;;;;;0.60;0.35;;;;;;;13.82;70.96;100415.19;10557321;28;20108;-88
2022/04/05 14:49:17;;;;;;;0.57;0.57;;;;;;;14.14;70.42;100422.25;10545857;28;20040;-88
2022/04/05 14:54:19;;;;;;;0.73;0.55;;;;;;;14.24;70.10;100421.44;10545209;28;20084;-87
2022/04/05 14:59:21;;;;;;;1.08;0.98;;;;;;;13.98;70.76;100420.44;10569246;28;20043;-85
2022/04/05 15:04:23;;;;;;;0.73;0.60;;;;;;;13.83;70.85;100416.94;10569676;28;20514;-83
2022/04/05 15:09:28;;;;;;;0.60;0.38;;;;;;;13.75;71.46;100416.03;10571475;28;20490;-87
2022/04/05 15:14:31;;;;;;;0.25;0.22;;;;;;;13.77;71.50;100427.28;10566334;28;20048;-87
2022/04/05 15:19:33;;;;;;;0.90;0.57;;;;;;;13.71;70.71;100420.31;10551183;28;20043;-85
2022/04/05 15:24:35;;;;;;;0.10;0.10;;;;;;;13.72;70.75;100434.16;10566383;28;20051;-84
2022/04/05 15:29:41;;;;;;;0.73;0.30;;;;;;;13.92;69.62;100417.00;10548523;28;20383;-84
2022/04/05 15:34:45;;;;;;;0.43;0.43;;;;;;;13.69;70.89;100423.78;10572432;28;20093;-84
2022/04/05 15:39:48;;;;;;;0.35;0.30;;;;;;;13.93;70.42;100423.91;10567365;28;20039;-84
2022/04/05 15:44:50;;;;;;;3.65;0.80;;;;;;;14.15;69.55;100423.97;10567204;28;20051;-86
2022/04/05 15:49:52;;;;;;;0.80;0.68;;;;;;;14.08;69.87;100419.66;10567595;28;20039;-83
2022/04/05 15:54:54;;;;;;;0.75;0.65;;;;;;;14.22;69.75;100420.56;10532358;28;20455;-82
2022/04/05 15:59:56;;;;;;;3.53;1.88;;;;;;;14.06;70.04;100423.94;10545231;28;20040;-82
2022/04/05 16:04:59;;;;;;;0.75;0.45;;;;;;;13.93;69.74;100418.72;10567074;28;20048;-83
2022/04/05 16:10:05;;;;;;;0.63;0.63;;;;;;;13.89;70.28;100416.97;10564049;28;20051;-82
2022/04/05 16:15:07;;;;;;;4.70;1.67;;;;;;;13.73;72.14;100420.34;10563993;28;20664;-83
2022/04/05 16:20:10;;;;;;;1.25;0.60;;;;;;;13.87;71.29;100413.53;10565389;28;20047;-83
2022/04/05 16:25:13;;;;;;;4.85;2.80;;;;;;;13.86;71.18;100414.38;10563761;28;20494;-83
2022/04/05 16:30:15;;;;;;;2.05;0.98;;;;;;;13.72;71.65;100408.28;10564189;28;20097;-84
2022/04/05 16:35:19;;;;;;;0.65;0.65;;;;;;;13.78;71.30;100409.16;10559219;27;20043;-84
2022/04/05 16:40:45;;;;;;;0.55;0.47;;;;;;;13.69;72.04;100413.41;10541927;28;20064;-84
2022/04/05 16:45:50;;;;;;;1.02;0.82;;;;;;;13.61;71.41;100410.81;10563331;28;20048;-82
2022/04/05 16:50:52;;;;;;;1.60;1.20;;;;;;;13.75;70.32;100403.09;10563564;28;20044;-83
2022/04/05 16:56:00;;;;;;;1.27;1.10;;;;;;;13.63;69.74;100415.13;10546609;28;20051;-82
2022/04/05 17:01:02;;;;;;;0.00;0.00;;;;;;;13.85;69.06;100404.88;10563500;28;20124;-81
2022/04/05 17:06:15;;;;;;;0.32;0.30;;;;;;;13.90;68.52;100410.94;10559732;28;20086;-83
2022/04/05 17:11:18;;;;;;;1.02;0.22;;;;;;;13.98;68.62;100410.09;10560654;28;20089;-81
2022/04/05 17:16:19;;;;;;;0.55;0.30;;;;;;;14.25;67.88;100402.44;10554848;28;20127;-80
2022/04/05 17:21:23;;;;;;;0.35;0.35;;;;;;;14.13;68.49;100404.97;10570619;28;20069;-81
2022/04/05 17:26:25;;;;;;;2.50;1.58;;;;;;;13.97;69.30;100406.66;10561331;28;20459;-82
2022/04/05 17:31:29;;;;;;;0.00;0.00;;;;;;;13.89;69.52;100401.44;10530421;28;20074;-81
2022/04/05 17:36:30;;;;;;;1.92;1.13;;;;;;;13.93;70.07;100412.66;10579016;28;20048;-82
2022/04/05 17:41:34;;;;;;;1.05;0.57;;;;;;;13.76;70.35;100416.06;10556862;28;20047;-82
2022/04/05 17:46:38;;;;;;;6.65;2.53;;;;;;;13.45;70.75;100425.34;10560397;28;20462;-82
2022/04/05 17:52:44;;;;;;;3.75;2.22;;;;;;;13.64;70.55;100422.03;10537719;28;20501;-83
2022/04/05 17:57:47;;;;;;;2.20;0.50;;;;;;;13.40;69.79;100429.63;10550372;28;20044;-82
2022/04/05 18:02:48;;;;;;;1.30;0.82;;;;;;;13.42;69.97;100425.34;10561877;28;20482;-84
2022/04/05 18:08:16;;;;;;;0.63;0.57;;;;;;;13.47;69.66;100423.66;10544527;28;20573;-83
2022/04/05 18:13:18;;;;;;;3.15;2.08;;;;;;;13.49;69.00;100422.81;10561527;28;20055;-82
2022/04/05 18:18:21;;;;;;;0.60;0.30;;;;;;;13.75;68.64;100416.03;10552455;28;20122;-84
2022/04/05 18:23:23;;;;;;;2.92;1.92;;;;;;;13.66;68.69;100408.25;10568722;28;20039;-82
2022/04/05 18:28:30;;;;;;;0.63;0.45;;;;;;;13.62;68.34;100400.44;10569339;28;20043;-84
2022/04/05 18:33:32;;;;;;;0.17;0.10;;;;;;;13.83;67.59;100401.41;10569046;28;20039;-81
2022/04/05 18:38:35;;;;;;;4.22;2.35;;;;;;;13.49;68.71;100401.25;10568351;28;20100;-83
2022/04/05 18:43:36;;;;;;;1.92;1.33;;;;;;;13.40;69.24;100416.69;10567482;28;20048;-82
2022/04/05 18:49:08;;;;;;;13.38;6.78;;;;;;;13.41;69.16;100408.09;10564976;28;20108;-84
2022/04/05 18:54:22;;;;;;;6.13;2.75;;;;;;;13.25;69.35;100404.50;10585484;28;20044;-81
2022/04/05 18:59:25;;;;;;;1.00;0.77;;;;;;;13.56;68.28;100407.31;10562908;28;20078;-80
2022/04/05 19:04:38;;;;;;;1.30;1.00;;;;;;;13.20;69.45;100413.94;10565546;28;20479;-82
2022/04/05 19:09:39;;;;;;;1.60;0.98;;;;;;;13.51;68.08;100416.78;10547947;28;20116;-88
2022/04/05 19:14:40;;;;;;;1.27;0.85;;;;;;;13.36;68.71;100414.94;10561742;28;20059;-88
2022/04/05 19:19:42;;;;;;;0.90;0.47;;;;;;;13.45;68.61;100415.88;10541697;28;20048;-87
2022/04/05 19:24:44;;;;;;;59.80;3.78;;;;;;;13.36;68.62;100420.09;10524222;28;20052;-88
2022/04/05 19:29:45;;;;;;;9.65;2.53;;;;;;;13.32;68.28;100420.06;10550555;28;20444;-87
2022/04/05 19:34:49;;;;;;;0.43;0.35;;;;;;;13.41;68.15;100424.47;10580405;28;20048;-86
2022/04/05 19:39:51;;;;;;;5.07;2.78;;;;;;;13.22;68.84;100423.44;10580334;28;20046;-87
2022/04/05 19:44:57;;;;;;;4.30;1.77;;;;;;;13.19;68.76;100420.84;10546149;28;20058;-86
2022/04/05 19:49:59;;;;;;;13.40;6.38;;;;;;;12.87;69.71;100411.09;10562446;28;20501;-85
2022/04/05 19:55:01;;;;;;;9.52;5.25;;;;;;;12.86;69.26;100419.72;10560088;28;20043;-88
2022/04/05 20:00:05;;;;;;;0.20;0.20;;;;;;;13.14;68.29;100419.97;10562813;28;20267;-88
2022/04/05 20:05:08;;;;;;;4.57;2.17;;;;;;;12.72;68.90;100406.69;10545656;28;20437;-87
2022/04/05 20:10:11;;;;;;;4.18;1.48;;;;;;;12.83;69.33;100419.69;10561972;28;20070;-87
2022/04/05 20:15:12;;;;;;;3.58;2.00;;;;;;;12.54;68.62;100407.38;10543946;28;20055;-88
2022/04/05 20:20:14;;;;;;;2.70;1.33;;;;;;;12.62;68.36;100421.22;10560736;28;20082;-87
2022/04/05 20:25:16;;;;;;;2.60;1.75;;;;;;;12.57;68.64;100407.38;10578595;28;20047;-87
2022/04/05 20:30:18;;;;;;;6.47;3.33;;;;;;;12.41;68.74;100402.91;10560188;28;20056;-87
2022/04/05 20:35:20;;;;;;;5.95;2.60;;;;;;;12.34;69.07;100410.59;10559639;28;20085;-88
2022/04/05 20:40:22;;;;;;;3.35;1.85;;;;;;;12.47;68.86;100410.75;10559498;28;20044;-87
2022/04/05 20:45:23;;;;;;;17.73;6.28;;;;;;;12.43;69.78;100411.56;10536283;28;20486;-86
2022/04/05 20:50:25;;;;;;;2.83;1.20;;;;;;;12.52;69.26;100409.91;10558863;28;20063;-86
2022/04/05 20:55:27;;;;;;;6.72;3.95;;;;;;;12.45;69.68;100404.69;10543109;28;20524;-88
2022/04/05 21:00:29;;;;;;;4.72;3.25;;;;;;;12.57;69.08;100398.78;10541604;28;20051;-88
2022/04/05 21:05:31;;;;;;;6.85;3.65;;;;;;;12.50;68.82;100395.25;10541431;28;20112;-84
2022/04/05 21:10:32;;;;;;;3.97;2.15;;;;;;;12.65;68.45;100399.72;10557920;28;20126;-85
2022/04/05 21:15:34;;;;;;;13.23;3.85;;;;;;;12.60;68.47;100385.88;10540655;28;20078;-85
2022/04/05 21:20:36;;;;;;;9.18;5.25;;;;;;;12.40;69.07;100383.13;10558426;28;20078;-84
2022/04/05 21:25:39;;;;;;;7.55;2.38;;;;;;;12.44;68.98;100385.72;10562673;28;20093;-84
2022/04/05 21:30:40;;;;;;;6.28;3.35;;;;;;;12.47;68.52;100374.59;10538969;28;20048;-87
2022/04/05 21:35:42;;;;;;;7.63;3.80;;;;;;;12.21;69.70;100367.41;10537941;28;20055;-86
2022/04/05 21:40:43;;;;;;;9.65;4.72;;;;;;;12.20;69.46;100370.84;10554012;28;20046;-85
2022/04/05 21:45:45;;;;;;;13.63;6.60;;;;;;;12.09;69.91;100367.31;10541398;28;20426;-86
2022/04/05 21:50:47;;;;;;;5.70;2.20;;;;;;;12.46;68.61;100367.69;10563497;28;20051;-83
2022/04/05 21:55:49;;;;;;;5.22;2.38;;;;;;;12.49;68.34;100362.53;10549971;28;20520;-86
2022/04/05 22:00:54;;;;;;;10.00;4.57;;;;;;;12.45;68.77;100360.78;10584335;28;20063;-86
2022/04/05 22:05:56;;;;;;;5.80;2.90;;;;;;;12.51;68.54;100358.25;10547710;28;20113;-85
2022/04/05 22:10:59;;;;;;;47.45;5.28;;;;;;;12.17;68.61;100356.19;10565268;28;20671;-87
2022/04/05 22:16:00;;;;;;;5.05;3.25;;;;;;;12.42;68.93;100356.44;10548633;28;20055;-86
2022/04/05 22:21:06;;;;;;;9.20;4.10;;;;;;;12.45;69.18;100356.47;10547974;28;20135;-85
2022/04/05 22:26:08;;;;;;;14.10;6.72;;;;;;;12.37;69.31;100348.66;10564775;28;20482;-86
2022/04/05 22:31:10;;;;;;;17.63;9.23;;;;;;;12.44;69.95;100353.88;10547558;28;20058;-83
2022/04/05 22:36:11;;;;;;;26.02;12.32;;;;;;;12.31;70.64;100348.59;10564195;28;20051;-85
2022/04/05 22:41:13;;;;;;;14.32;6.60;;;;;;;12.44;70.03;100348.69;10563502;28;20044;-85
2022/04/05 22:46:15;;;;;;;23.67;11.07;;;;;;;12.62;70.32;100348.84;10538682;28;20517;-85
2022/04/05 22:51:18;;;;;;;20.65;9.25;;;;;;;12.69;70.02;100340.34;10563560;28;20097;-85
2022/04/05 22:56:19;;;;;;;9.98;5.82;;;;;;;12.51;70.08;100340.16;10563364;28;20047;-83
2022/04/05 23:01:21;;;;;;;18.63;10.40;;;;;;;12.47;69.86;100343.56;10545069;28;20506;-85
2022/04/05 23:06:22;;;;;;;18.60;9.55;;;;;;;12.72;69.85;100343.78;10563533;28;20543;-84
2022/04/05 23:11:24;;;;;;;23.25;10.93;;;;;;;12.57;68.99;100337.63;10563422;28;20051;-85
2022/04/05 23:16:28;;;;;;;28.52;7.22;;;;;;;12.85;68.65;100335.25;10562799;28;20052;-85
2022/04/05 23:21:29;;;;;;;18.58;8.57;;;;;;;12.61;69.17;100336.81;10545157;28;20067;-83
2022/04/05 23:26:32;;;;;;;18.67;9.80;;;;;;;12.57;69.41;100332.44;10545878;28;20047;-86
2022/04/05 23:31:34;;;;;;;19.92;8.68;;;;;;;12.50;69.08;100328.09;10561616;28;20162;-87